createdAt,value
2023-04-22T00:01:00.142Z,0
2023-04-22T00:04:25.571Z,0
2023-04-22T00:07:50.645Z,0
2023-04-22T00:11:15.883Z,0
2023-04-22T00:14:41.208Z,0
2023-04-22T00:18:06.368Z,0
2023-04-22T00:21:31.560Z,0
2023-04-22T00:24:56.775Z,0
2023-04-22T00:28:22.014Z,0
2023-04-22T00:31:47.303Z,0
2023-04-22T00:35:12.517Z,0
2023-04-22T00:38:37.725Z,0
2023-04-22T00:42:02.977Z,0
2023-04-22T00:45:28.202Z,0
2023-04-22T00:48:53.490Z,0
2023-04-22T00:52:18.691Z,0
2023-04-22T00:55:43.946Z,0
2023-04-22T00:59:09.158Z,0
2023-04-22T01:02:34.596Z,0
2023-04-22T01:05:59.652Z,0
2023-04-22T01:09:24.919Z,0
2023-04-22T01:12:50.111Z,0
2023-04-22T01:16:15.386Z,0
2023-04-22T01:19:40.825Z,0
2023-04-22T01:23:05.837Z,0
2023-04-22T01:26:31.071Z,0
2023-04-22T01:29:56.272Z,0
2023-04-22T01:33:21.522Z,0
2023-04-22T01:36:46.723Z,0
2023-04-22T01:40:11.986Z,0
2023-04-22T01:43:37.223Z,0
2023-04-22T01:47:02.424Z,0
2023-04-22T01:50:27.654Z,0
2023-04-22T01:53:52.843Z,0
2023-04-22T01:57:18.108Z,0
2023-04-22T02:00:43.288Z,0
2023-04-22T02:04:08.539Z,0
2023-04-22T02:07:33.762Z,0
2023-04-22T02:10:59.025Z,0
2023-04-22T02:14:24.276Z,0
2023-04-22T02:17:49.468Z,0
2023-04-22T02:21:14.677Z,0
2023-04-22T02:24:39.949Z,0
2023-04-22T02:28:05.180Z,0
2023-04-22T02:31:30.476Z,0
2023-04-22T02:34:55.629Z,0
2023-04-22T02:38:20.823Z,0
2023-04-22T02:41:46.040Z,0
2023-04-22T02:45:11.252Z,0
2023-04-22T02:48:36.490Z,0
2023-04-22T02:52:01.665Z,0
2023-04-22T02:55:26.868Z,0
2023-04-22T02:58:52.092Z,0
2023-04-22T03:02:17.348Z,0
2023-04-22T03:05:42.580Z,0
2023-04-22T03:09:07.785Z,0
2023-04-22T03:12:33.009Z,0
2023-04-22T03:15:58.237Z,0
2023-04-22T03:19:23.468Z,0
2023-04-22T03:22:48.709Z,0
2023-04-22T03:26:13.893Z,0
2023-04-22T03:29:39.281Z,0
2023-04-22T03:33:04.435Z,0
2023-04-22T03:36:29.602Z,0
2023-04-22T03:39:54.866Z,0
2023-04-22T03:43:20.062Z,0
2023-04-22T03:46:45.272Z,0
2023-04-22T03:50:10.518Z,0
2023-04-22T03:53:35.730Z,0
2023-04-22T03:57:00.976Z,0
2023-04-22T04:00:26.179Z,0
2023-04-22T04:03:51.637Z,0
2023-04-22T04:07:16.622Z,0
2023-04-22T04:10:41.865Z,0
2023-04-22T04:14:07.116Z,0
2023-04-22T04:17:32.358Z,0
2023-04-22T04:20:57.527Z,0
2023-04-22T04:24:22.767Z,0
2023-04-22T04:27:47.970Z,0
2023-04-22T04:31:13.259Z,0
2023-04-22T04:34:38.432Z,0
2023-04-22T04:38:03.920Z,0
2023-04-22T04:41:29.116Z,6
2023-04-22T04:44:54.362Z,6
2023-04-22T04:48:19.624Z,6
2023-04-22T04:51:44.818Z,6
2023-04-22T04:55:10.088Z,6
2023-04-22T04:58:35.296Z,6
2023-04-22T05:02:00.568Z,6
2023-04-22T05:05:25.766Z,6
2023-04-22T05:08:50.969Z,6
2023-04-22T05:12:16.243Z,6
2023-04-22T05:15:41.439Z,11
2023-04-22T05:19:06.662Z,11
2023-04-22T05:22:31.934Z,11
2023-04-22T05:25:57.069Z,11
2023-04-22T05:29:22.271Z,11
2023-04-22T05:32:47.586Z,11
2023-04-22T05:36:12.743Z,11
2023-04-22T05:39:38.168Z,11
2023-04-22T05:43:03.206Z,17
2023-04-22T05:46:28.494Z,17
2023-04-22T05:49:53.638Z,17
2023-04-22T05:53:18.855Z,23
2023-04-22T05:56:44.089Z,28
2023-04-22T06:00:09.689Z,28
2023-04-22T06:03:35.349Z,28
2023-04-22T06:07:00.381Z,34
2023-04-22T06:10:25.595Z,34
2023-04-22T06:13:50.843Z,45
2023-04-22T06:17:16.067Z,39
2023-04-22T06:20:41.268Z,39
2023-04-22T06:24:06.489Z,39
2023-04-22T06:27:31.749Z,45
2023-04-22T06:30:57.025Z,34
2023-04-22T06:34:22.173Z,45
2023-04-22T06:37:47.357Z,45
2023-04-22T06:41:12.558Z,45
2023-04-22T06:44:37.780Z,45
2023-04-22T06:48:03.019Z,45
2023-04-22T06:51:28.367Z,34
2023-04-22T06:54:53.615Z,28
2023-04-22T06:58:19.472Z,39
2023-04-22T07:01:44.700Z,45
2023-04-22T07:05:09.909Z,45
2023-04-22T07:08:35.096Z,34
2023-04-22T07:12:00.317Z,34
2023-04-22T07:15:25.521Z,39
2023-04-22T07:18:50.753Z,39
2023-04-22T07:22:16.012Z,45
2023-04-22T07:25:41.187Z,51
2023-04-22T07:29:06.398Z,45
2023-04-22T07:32:31.632Z,45
2023-04-22T07:35:56.832Z,34
2023-04-22T07:39:22.054Z,39
2023-04-22T07:42:47.253Z,39
2023-04-22T07:46:12.468Z,39
2023-04-22T07:49:38.106Z,39
2023-04-22T07:53:02.945Z,51
2023-04-22T07:56:28.185Z,51
2023-04-22T07:59:53.367Z,56
2023-04-22T08:03:18.740Z,45
2023-04-22T08:06:43.803Z,51
2023-04-22T08:10:09.005Z,56
2023-04-22T08:13:34.250Z,56
2023-04-22T08:16:59.436Z,56
2023-04-22T08:20:24.640Z,56
2023-04-22T08:23:49.896Z,45
2023-04-22T08:27:15.102Z,39
2023-04-22T08:30:40.366Z,45
2023-04-22T08:34:05.565Z,51
2023-04-22T08:37:30.781Z,51
2023-04-22T08:40:55.978Z,56
2023-04-22T08:44:21.186Z,51
2023-04-22T08:47:46.446Z,56
2023-04-22T08:51:11.636Z,56
2023-04-22T08:54:36.888Z,51
2023-04-22T08:58:02.114Z,45
2023-04-22T09:01:28.754Z,45
2023-04-22T09:04:54.024Z,45
2023-04-22T09:08:19.168Z,56
2023-04-22T09:11:44.404Z,56
2023-04-22T09:15:09.640Z,56
2023-04-22T09:18:34.870Z,56
2023-04-22T09:22:00.193Z,56
2023-04-22T09:25:25.324Z,56
2023-04-22T09:28:50.546Z,56
2023-04-22T09:32:15.988Z,56
2023-04-22T09:35:41.158Z,62
2023-04-22T09:39:06.348Z,62
2023-04-22T09:42:31.620Z,68
2023-04-22T09:45:57.006Z,79
2023-04-22T09:49:22.396Z,79
2023-04-22T09:52:47.784Z,73
2023-04-22T09:56:13.223Z,84
2023-04-22T09:59:38.914Z,73
2023-04-22T10:03:04.115Z,73
2023-04-22T10:06:29.364Z,79
2023-04-22T10:09:54.768Z,84
2023-04-22T10:13:20.143Z,84
2023-04-22T10:16:45.501Z,90
2023-04-22T10:20:10.889Z,90
2023-04-22T10:23:36.277Z,90
2023-04-22T10:27:01.617Z,96
2023-04-22T10:30:26.979Z,96
2023-04-22T10:33:52.342Z,96
2023-04-22T10:37:17.704Z,101
2023-04-22T10:40:43.070Z,101
2023-04-22T10:44:08.499Z,96
2023-04-22T10:47:33.948Z,96
2023-04-22T10:50:59.266Z,84
2023-04-22T10:54:24.643Z,96
2023-04-22T10:57:50.065Z,96
2023-04-22T11:01:15.492Z,90
2023-04-22T11:04:40.973Z,79
2023-04-22T11:08:06.244Z,73
2023-04-22T11:11:31.609Z,84
2023-04-22T11:14:56.936Z,79
2023-04-22T11:18:22.809Z,101
2023-04-22T11:21:49.532Z,96
2023-04-22T11:25:13.548Z,101
2023-04-22T11:28:38.941Z,101
2023-04-22T11:32:04.523Z,96
2023-04-22T11:35:29.582Z,90
2023-04-22T11:38:54.909Z,107
2023-04-22T11:42:20.224Z,107
2023-04-22T11:45:45.621Z,107
2023-04-22T11:49:10.934Z,101
2023-04-22T11:52:36.258Z,107
2023-04-22T11:56:01.611Z,113
2023-04-22T11:59:26.940Z,90
2023-04-22T12:02:52.504Z,90
2023-04-22T12:06:17.793Z,68
2023-04-22T12:09:43.284Z,68
2023-04-22T12:13:08.818Z,79
2023-04-22T12:16:34.270Z,73
2023-04-22T12:19:59.557Z,79
2023-04-22T12:23:24.836Z,68
2023-04-22T12:26:50.165Z,73
2023-04-22T12:30:15.477Z,73
2023-04-22T12:33:40.795Z,68
2023-04-22T12:37:06.092Z,68
2023-04-22T12:40:31.504Z,62
2023-04-22T12:43:56.844Z,56
2023-04-22T12:47:22.313Z,62
2023-04-22T12:50:47.593Z,68
2023-04-22T12:54:13.015Z,56
2023-04-22T12:57:38.417Z,51
2023-04-22T13:01:03.800Z,56
2023-04-22T13:04:29.238Z,56
2023-04-22T13:08:03.842Z,62
2023-04-22T13:11:19.886Z,68
2023-04-22T13:14:45.291Z,45
2023-04-22T13:18:10.808Z,51
2023-04-22T13:21:36.305Z,56
2023-04-22T13:25:01.730Z,56
2023-04-22T13:28:27.187Z,56
2023-04-22T13:31:52.827Z,56
2023-04-22T13:35:18.006Z,56
2023-04-22T13:38:43.400Z,56
2023-04-22T13:42:08.733Z,56
2023-04-22T13:45:34.095Z,45
2023-04-22T13:48:59.461Z,45
2023-04-22T13:52:24.848Z,51
2023-04-22T13:55:50.221Z,51
2023-04-22T13:59:15.578Z,51
2023-04-22T14:02:40.977Z,51
2023-04-22T14:06:06.263Z,51
2023-04-22T14:09:31.603Z,51
2023-04-22T14:12:56.960Z,51
2023-04-22T14:16:22.302Z,51
2023-04-22T14:19:47.623Z,51
2023-04-22T14:23:12.976Z,45
2023-04-22T14:26:38.345Z,45
2023-04-22T14:30:03.693Z,51
2023-04-22T14:33:29.052Z,51
2023-04-22T14:36:54.462Z,51
2023-04-22T14:40:19.874Z,45
2023-04-22T14:43:45.224Z,39
2023-04-22T14:47:10.654Z,45
2023-04-22T14:50:35.989Z,39
2023-04-22T14:54:01.463Z,39
2023-04-22T14:57:26.911Z,34
2023-04-22T15:00:52.353Z,28
2023-04-22T15:04:17.937Z,34
2023-04-22T15:40:38.879Z,6
2023-04-22T15:44:04.764Z,17
2023-04-22T15:47:29.534Z,23
2023-04-22T15:50:54.868Z,23
2023-04-22T15:55:03.766Z,23
2023-04-22T15:58:32.408Z,28
2023-04-22T16:01:54.631Z,23
2023-04-22T16:05:19.843Z,23
2023-04-22T16:08:45.228Z,23
2023-04-22T16:12:10.538Z,23
2023-04-22T16:15:35.893Z,23
2023-04-22T16:19:01.195Z,23
2023-04-22T16:22:26.494Z,17
2023-04-22T16:25:51.827Z,17
2023-04-22T16:29:17.133Z,17
2023-04-22T16:32:42.478Z,11
2023-04-22T16:36:07.832Z,11
2023-04-22T16:39:33.145Z,11
2023-04-22T16:42:58.470Z,11
2023-04-22T16:46:23.811Z,11
2023-04-22T16:49:49.104Z,11
2023-04-22T16:53:14.404Z,11
2023-04-22T16:56:39.724Z,6
2023-04-22T17:00:05.059Z,6
2023-04-22T17:03:30.520Z,6
2023-04-22T17:06:55.784Z,6
2023-04-22T17:10:21.120Z,6
2023-04-22T17:13:46.392Z,6
2023-04-22T17:17:11.829Z,6
2023-04-22T17:20:37.164Z,6
2023-04-22T17:24:02.552Z,6
2023-04-22T17:27:27.908Z,0
2023-04-22T17:30:53.257Z,0
2023-04-22T17:34:18.628Z,0
2023-04-22T17:37:43.982Z,0
2023-04-22T17:41:09.384Z,0
2023-04-22T17:44:34.724Z,0
2023-04-22T17:48:00.148Z,0
2023-04-22T17:51:25.478Z,0
2023-04-22T17:54:50.922Z,0
2023-04-22T17:58:16.253Z,0
2023-04-22T18:01:41.576Z,0
2023-04-22T18:05:06.930Z,0
2023-04-22T18:08:32.187Z,0
2023-04-22T18:11:57.440Z,0
2023-04-22T18:15:22.764Z,0
2023-04-22T18:18:48.035Z,0
2023-04-22T18:22:13.322Z,0
2023-04-22T18:25:39.162Z,0
2023-04-22T18:29:04.551Z,0
2023-04-22T18:32:29.972Z,0
2023-04-22T18:35:55.244Z,0
2023-04-22T18:39:20.597Z,0
2023-04-22T18:42:46.020Z,0
2023-04-22T18:46:11.476Z,0
2023-04-22T18:49:36.840Z,0
2023-04-22T18:53:02.216Z,0
2023-04-22T18:56:27.608Z,0
2023-04-22T18:59:52.960Z,0
2023-04-22T19:03:18.457Z,0
2023-04-22T19:06:43.746Z,0
2023-04-22T19:10:09.097Z,0
2023-04-22T19:13:34.448Z,0
2023-04-22T19:16:59.735Z,0
2023-04-22T19:20:25.202Z,0
2023-04-22T19:23:50.934Z,0
2023-04-22T19:27:16.646Z,0
2023-04-22T19:30:42.504Z,0
2023-04-22T19:34:08.296Z,0
2023-04-22T19:37:34.068Z,0
2023-04-22T19:40:59.821Z,0
2023-04-22T19:44:25.608Z,0
2023-04-22T19:47:51.305Z,0
2023-04-22T19:51:16.988Z,0
2023-04-22T19:54:42.824Z,0
2023-04-22T19:58:08.501Z,0
2023-04-22T20:01:34.218Z,0
2023-04-22T20:04:59.876Z,0
2023-04-22T20:08:25.899Z,0
2023-04-22T20:11:51.289Z,0
2023-04-22T20:15:16.768Z,0
2023-04-22T20:18:42.180Z,0
2023-04-22T20:22:07.715Z,0
2023-04-22T20:25:33.237Z,0
2023-04-22T20:28:58.615Z,0
2023-04-22T20:32:24.041Z,0
2023-04-22T20:35:49.436Z,0
2023-04-22T20:39:14.926Z,0
2023-04-22T20:42:40.329Z,0
2023-04-22T20:46:05.773Z,0
2023-04-22T20:49:31.173Z,0
2023-04-22T20:52:56.566Z,0
2023-04-22T20:56:21.994Z,0
2023-04-22T20:59:47.424Z,0
2023-04-22T21:03:12.872Z,0
2023-04-22T21:06:38.222Z,0
2023-04-22T21:10:03.615Z,0
2023-04-22T21:13:29.093Z,0
2023-04-22T21:16:54.466Z,0
2023-04-22T21:20:26.955Z,0
2023-04-22T21:23:55.198Z,0
2023-04-22T21:27:20.606Z,0
2023-04-22T21:30:46.036Z,0
2023-04-22T21:34:11.465Z,0
2023-04-22T21:37:36.890Z,0
2023-04-22T21:41:02.335Z,0
2023-04-22T21:44:27.753Z,0
2023-04-22T21:47:53.179Z,0
2023-04-22T21:51:18.619Z,0
2023-04-22T21:54:44.168Z,0
2023-04-22T21:58:09.497Z,0
2023-04-22T22:01:34.979Z,0
2023-04-22T22:05:00.340Z,0
2023-04-22T22:08:25.748Z,0
2023-04-22T22:11:51.238Z,0
2023-04-22T22:15:16.674Z,0
2023-04-22T22:18:42.107Z,0
2023-04-22T22:22:07.566Z,0
2023-04-22T22:25:33.760Z,0
2023-04-22T22:28:59.197Z,0
2023-04-22T22:32:24.641Z,0
2023-04-22T22:35:50.043Z,0
2023-04-22T22:39:15.468Z,0
2023-04-22T22:42:40.954Z,0
2023-04-22T22:46:06.455Z,0
2023-04-22T22:49:31.823Z,0
2023-04-22T22:52:57.230Z,0
2023-04-22T22:56:22.731Z,0
2023-04-22T22:59:48.171Z,0
2023-04-22T23:03:13.945Z,0
2023-04-22T23:06:39.061Z,0
2023-04-22T23:10:04.460Z,0
2023-04-22T23:13:29.907Z,0
2023-04-22T23:16:55.288Z,0
2023-04-22T23:20:20.591Z,0
2023-04-22T23:23:45.918Z,0
2023-04-22T23:27:11.129Z,0
2023-04-22T23:30:36.397Z,0
2023-04-22T23:34:01.663Z,0
2023-04-22T23:37:26.949Z,0
2023-04-22T23:40:52.251Z,0
2023-04-22T23:44:17.482Z,0
2023-04-22T23:47:42.756Z,0
2023-04-22T23:51:08.007Z,0
2023-04-22T23:54:33.314Z,0
2023-04-22T23:57:58.628Z,0
